AirNav   Pilot Hours Calculator
 
 642 users online  

7FD4 Baptist Medical Center Heliport
Jacksonville, Florida, USA

GOING TO JACKSONVILLE?


FAA INFORMATION EFFECTIVE 05 DECEMBER 2019

Location

FAA Identifier: 7FD4
Lat/Long: 30-18-56.8620N 081-39-44.3430W
30-18.947700N 081-39.739050W
30.3157950,-81.6623175
(estimated)
Elevation: 65 ft. / 20 m (estimated)
Variation: 03W (1985)
Time zone: UTC -5 (UTC -4 during Daylight Saving Time)
Zip code: 32207

Heliport Operations

Heliport use: Private use, MEDICAL
Activation date: 03/1988
Control tower: no
ARTCC: JACKSONVILLE CENTER
FSS: GAINESVILLE FLIGHT SERVICE STATION
Attendance: CONTINUOUS
Segmented circle: no

Heliport Communications

WX ASOS at CRG (8 nm E): PHONE 904-646-4670
WX AWOS-3 at HEG (8 nm W): 119.275 (904-695-0334)
WX ASOS at JAX (11 nm N): PHONE 904-741-4304
WX AWOS-3 at VQQ (13 nm SW): 125.275 (904-778-6934)
  • FREQUENCY 123.025.

Nearby radio navigation aids

VOR radial/distance  VOR name  Freq  Var
CRGr263/8.0CRAIG VORTAC114.5003W
VQQr065/(13.4)CECIL VOR117.9003W
SGJr327/27.6ST AUGUSTINE VOR/DME109.4006W

 
NDB name  Hdg/Dist  Freq  Var  ID
DINNS147/11.534406WJA .--- .-
REYNOLDS006/20.933807WRYD .-. -.-- -..

Heliport Services

Runway Information

Helipad H1

Dimensions: 150 x 100 ft. / 46 x 30 m
Surface: concrete
Latitude: 30-18.972833N
Longitude: 081-39.873500W
Elevation: 65.0 ft.
Traffic pattern: leftleft

Heliport Ownership and Management from official FAA records

Ownership: Privately-owned
Owner: BAPTIST MEDICAL CENTER
800 PRUDENTIAL DR
JACKSONVILLE, FL 32207
Phone (904) 202-2000
Manager: JIM MCCOY
800 PRUDENTIAL DR
JACKSONVILLE, FL 32207
Phone (904) 503-3891

Additional Remarks

FOR CD CTC JACKSONVILLE APCH AT 904-741-0284.

Instrument Procedures

There are no published instrument procedures at 7FD4.

Some nearby airports with instrument procedures:

KNIP - Jacksonville Naval Air Station (Towers Field) (5 nm S)
KCRG - Jacksonville Executive Airport at Craig (8 nm E)
KHEG - Herlong Recreational Airport (8 nm W)
KJAX - Jacksonville International Airport (11 nm N)
KVQQ - Cecil Airport (13 nm SW)
KNRB - Mayport Naval Station (Adm David L. McDonald Field) (13 nm E)
 
Loc | Ops | Rwys | IFR | FBO | Links
Com | Nav | Svcs | Stats | Notes
Area around 7FD4 (Baptist Medical Center Heliport)
 
Road maps at: MapQuest Bing Google
 
Aerial photo
No photo
 
Sectional chart

 
Airport distance calculator
Flying to Baptist Medical Center Heliport? Find the distance to fly.

From to 7FD4

Sunrise and sunset
Times for 07-Dec-2019
 Local
(UTC-5)
 Zulu
(UTC)
Morning civil twilight06:4511:45
Sunrise07:1112:11
Sunset17:2522:25
Evening civil twilight17:5122:51

Current date and time
Zulu (UTC)  07-Dec-2019 09:08:13
Local (UTC-5)  07-Dec-2019 04:08:13
 
METAR
KNIP 
6nm S 
070853Z 25003KT 10SM CLR 12/09 A3015 RMK AO2 SLP205 T01170089 58003 $
KCRG 
8nm E 
070857Z AUTO 00000KT 1/4SM FG CLR 08/07 A3015 RMK AO2 T00830072
KHEG 
8nm W 
070855Z AUTO 00000KT 6SM BR CLR 07/06 A3016 RMK AO2
KJAX 
11nm N 
070856Z 00000KT 10SM CLR 08/06 A3014 RMK AO2 SLP206 T00780061 58004
KVQQ 
13nm SW 
070855Z AUTO 00000KT 10SM CLR 05/04 A3015 RMK AO2
KNRB 
13nm E 
070852Z AUTO 06006KT 10SM CLR 16/12 A3014 RMK AO2 SLP206 T01560122 58005
TAF
KNIP 
6nm S 
0707/0807 VRB06KT 9999 SKC QNH3015INS FM072100 VRB06KT 9999 BKN100 QNH3014INS T13/0712Z T19/0720Z COR 0735 FN00218
KCRG 
8nm E 
070532Z 0706/0806 00000KT 3SM BR FEW250 FM071300 01005KT P6SM FEW027 FM071500 04006KT P6SM FEW040 SCT100 SCT250 FM080400 04009KT P6SM BKN030 BKN100
KJAX 
11nm N 
070532Z 0706/0806 00000KT P6SM FEW200 FM071100 VRB03KT 4SM BR FEW003 SCT015 FM071330 VRB04KT P6SM FEW040 SCT100 SCT250 FM080400 04006KT P6SM BKN028 BKN100
KVQQ 
13nm SW 
070532Z 0706/0806 00000KT 1SM BR FEW250 FM071200 04005KT P6SM FEW015 SCT180 FM072300 04006KT P6SM BKN080 FM080400 04005KT 6SM BR BKN045
KNRB 
13nm E 
0707/0807 VRB06KT 9999 SKC QNH3016INS FM071800 03010KT 9999 SCT030 SCT210 BKN250 QNH3018INS AUTOMATED SENSOR METWATCH 0707 TIL 0807 T12/0712Z T18/0718Z FN00218
NOTAMs
Click for the latest NOTAMs
NOTAMs are issued by the DoD/FAA and will open in a separate window not controlled by AirNav.

 

 
 

Would you like to see your business listed on this page?

 If your business provides an interesting product or service to pilots, flight crews, aircraft, or users of the Baptist Medical Center Heliport, you should consider listing it here.  To start the listing process, click on the button below
 
Add a business
 

Other Pages about Baptist Medical Center Heliport

Update a link
 
Copyright © AirNav, LLC. All rights reserved. Privacy Policy  Contact